Time;durP1;ratioP1;P1;durP2;ratioP2;P2;SDS_P1;SDS_P2;PMS_P1;PMS_P2;Temp;Humidity;BMP_temperature;BMP_pressure;BME280_temperature;BME280_humidity;BME280_pressure;Samples;Min_cycle;Max_cycle;Signal;HPM_P1;HPM_P2
2021/05/02 13:39:48;;;;;;;4.75;3.60;;;18.80;38.00;;;;;;5055832;28;20493;-79
2021/05/02 13:42:14;;;;;;;7.90;4.78;;;18.60;37.90;;;;;;5046083;28;20029;-77
2021/05/02 13:44:40;;;;;;;5.22;4.30;;;18.80;36.90;;;;;;5049383;28;20030;-78
2021/05/02 13:47:06;;;;;;;6.22;4.43;;;19.10;37.50;;;;;;5048963;28;20067;-77
2021/05/02 13:49:32;;;;;;;5.03;4.38;;;19.30;35.50;;;;;;5051445;28;20029;-77
2021/05/02 13:51:58;;;;;;;5.40;4.60;;;19.30;35.90;;;;;;5044932;28;20044;-78
2021/05/02 13:54:23;;;;;;;6.65;3.97;;;19.60;36.40;;;;;;5031555;28;20030;-77
2021/05/02 13:56:49;;;;;;;4.63;3.78;;;19.50;35.00;;;;;;5031569;28;20045;-77
2021/05/02 13:59:15;;;;;;;4.65;3.72;;;19.50;35.60;;;;;;5040910;28;20021;-77
2021/05/02 14:01:41;;;;;;;4.60;3.35;;;19.50;36.10;;;;;;5051666;28;20041;-78
2021/05/02 14:04:07;;;;;;;7.15;4.95;;;19.40;35.60;;;;;;5047545;28;20026;-76
2021/05/02 14:06:33;;;;;;;6.97;4.88;;;19.40;35.10;;;;;;5051156;28;20043;-79
2021/05/02 14:08:59;;;;;;;5.60;3.97;;;19.50;36.00;;;;;;5055598;28;20495;-77
2021/05/02 14:11:26;;;;;;;5.22;4.32;;;19.50;34.40;;;;;;5049158;28;20068;-78
2021/05/02 14:13:53;;;;;;;6.20;3.40;;;19.50;34.40;;;;;;5046939;28;20112;-79
2021/05/02 14:16:19;;;;;;;5.10;3.70;;;19.50;35.20;;;;;;5031834;28;20088;-81
2021/05/02 14:18:45;;;;;;;4.47;3.90;;;19.50;35.00;;;;;;5054996;28;20482;-78
2021/05/02 14:21:11;;;;;;;5.40;3.88;;;19.30;34.80;;;;;;5052099;28;20033;-79
2021/05/02 14:23:37;;;;;;;4.43;4.00;;;19.30;34.70;;;;;;5050420;28;20025;-78
2021/05/02 14:26:04;;;;;;;5.55;4.20;;;19.10;33.70;;;;;;5049510;28;20029;-85
2021/05/02 14:28:31;;;;;;;6.22;4.07;;;19.10;36.10;;;;;;5050157;28;20377;-77
2021/05/02 14:30:57;;;;;;;5.82;4.40;;;19.20;34.90;;;;;;5037583;28;20026;-79
2021/05/02 14:33:23;;;;;;;5.30;4.68;;;19.40;35.50;;;;;;5051697;28;20021;-76
2021/05/02 14:35:49;;;;;;;8.75;5.45;;;19.30;36.50;;;;;;5038806;28;20038;-75
2021/05/02 14:38:15;;;;;;;4.78;4.00;;;19.30;35.90;;;;;;5037633;28;20064;-75
2021/05/02 14:40:42;;;;;;;6.13;4.82;;;19.30;35.30;;;;;;5051693;28;20037;-75
2021/05/02 14:43:08;;;;;;;6.22;5.25;;;19.20;35.30;;;;;;5048503;28;20033;-76
2021/05/02 14:45:34;;;;;;;6.68;5.40;;;19.30;36.20;;;;;;5051399;28;20040;-83
2021/05/02 14:48:00;;;;;;;7.47;5.57;;;19.30;36.50;;;;;;5050370;28;20474;-79
2021/05/02 14:50:27;;;;;;;6.40;5.57;;;19.30;38.30;;;;;;5042323;28;20042;-77
2021/05/02 14:52:52;;;;;;;7.30;5.53;;;19.30;38.30;;;;;;5033405;28;20464;-82
2021/05/02 14:55:19;;;;;;;6.57;5.45;;;19.40;38.40;;;;;;5033337;28;20049;-76
2021/05/02 14:57:45;;;;;;;5.53;4.88;;;19.40;38.30;;;;;;5033718;28;20033;-81
2021/05/02 15:00:14;;;;;;;7.38;5.57;;;19.30;38.00;;;;;;5034009;28;20038;-78
2021/05/02 15:02:39;;;;;;;7.18;5.28;;;19.30;38.20;;;;;;5036645;28;20029;-76
2021/05/02 15:05:09;;;;;;;7.00;5.47;;;19.30;38.60;;;;;;5037243;28;20029;-78
2021/05/02 15:07:35;;;;;;;7.65;5.47;;;19.30;38.70;;;;;;5035882;28;20037;-76
2021/05/02 15:10:00;;;;;;;6.13;5.53;;;19.20;38.20;;;;;;5033040;28;20037;-76
2021/05/02 15:12:27;;;;;;;5.82;5.28;;;19.20;38.40;;;;;;5035590;28;20022;-77
2021/05/02 15:14:53;;;;;;;7.38;4.97;;;19.30;38.30;;;;;;5029925;28;20087;-76
2021/05/02 15:17:19;;;;;;;6.50;5.25;;;19.20;38.20;;;;;;5032731;28;20029;-77
2021/05/02 15:19:44;;;;;;;6.57;5.85;;;19.20;37.40;;;;;;5024561;28;20029;-80
2021/05/02 15:22:13;;;;;;;6.63;5.13;;;19.20;37.70;;;;;;5029053;28;20026;-81
2021/05/02 15:24:39;;;;;;;5.95;4.63;;;19.20;38.20;;;;;;5017598;28;20460;-78
2021/05/02 15:27:09;;;;;;;6.30;4.78;;;19.10;37.30;;;;;;5021039;28;20025;-79
2021/05/02 15:29:34;;;;;;;7.95;5.38;;;18.90;37.90;;;;;;5034255;28;20033;-82
2021/05/02 15:32:00;;;;;;;8.93;5.40;;;19.00;37.70;;;;;;5033239;28;20020;-83
2021/05/02 15:34:26;;;;;;;7.65;5.22;;;19.00;38.70;;;;;;5036072;28;20025;-82
2021/05/02 15:36:52;;;;;;;7.18;5.32;;;19.10;37.80;;;;;;5029991;28;20021;-82
2021/05/02 15:39:19;;;;;;;6.78;4.97;;;19.10;36.80;;;;;;5017115;28;20464;-82
2021/05/02 15:41:45;;;;;;;8.25;5.60;;;19.00;38.30;;;;;;5021305;28;20447;-83
2021/05/02 15:44:11;;;;;;;6.35;4.88;;;19.10;38.00;;;;;;5035318;28;20107;-82
2021/05/02 15:46:37;;;;;;;5.60;4.65;;;19.20;37.50;;;;;;5036956;28;20825;-82
2021/05/02 15:49:03;;;;;;;5.22;4.72;;;19.30;37.40;;;;;;5036917;28;20072;-83
2021/05/02 15:51:29;;;;;;;6.00;4.75;;;19.30;36.20;;;;;;5018447;28;20100;-82
2021/05/02 15:53:56;;;;;;;5.47;4.22;;;19.20;36.60;;;;;;5017010;28;20057;-83
2021/05/02 15:56:22;;;;;;;7.55;4.85;;;19.10;37.80;;;;;;5016767;28;20033;-83
2021/05/02 15:58:47;;;;;;;5.20;4.35;;;18.80;35.20;;;;;;5023033;28;20160;-82
2021/05/02 16:01:13;;;;;;;6.28;4.43;;;18.60;37.30;;;;;;5032276;28;20048;-83
2021/05/02 16:03:39;;;;;;;7.13;4.70;;;18.50;37.60;;;;;;5028174;28;20044;-82
2021/05/02 16:06:05;;;;;;;4.85;4.10;;;18.50;38.70;;;;;;5036207;28;20032;-82
2021/05/02 16:08:32;;;;;;;6.22;4.90;;;18.50;38.40;;;;;;5032390;28;20125;-82
2021/05/02 16:10:58;;;;;;;7.13;4.63;;;18.50;37.90;;;;;;5028147;28;20032;-83
2021/05/02 16:13:24;;;;;;;8.75;5.28;;;18.50;38.10;;;;;;5038027;28;20049;-81
2021/05/02 16:15:50;;;;;;;5.18;4.68;;;18.50;37.60;;;;;;5014700;28;20097;-81
2021/05/02 16:18:16;;;;;;;7.13;5.15;;;18.40;37.40;;;;;;5012632;28;20048;-82
2021/05/02 16:20:44;;;;;;;8.05;5.10;;;18.40;38.50;;;;;;5011421;28;20034;-82
2021/05/02 16:23:11;;;;;;;12.35;11.25;;;18.30;39.20;;;;;;5015520;28;20037;-80
2021/05/02 16:25:41;;;;;;;11.15;9.95;;;18.30;38.90;;;;;;5014151;28;20036;-82
2021/05/02 16:28:07;;;;;;;6.05;5.45;;;18.20;39.50;;;;;;5014987;28;20053;-84
2021/05/02 16:30:34;;;;;;;8.13;7.32;;;18.10;39.00;;;;;;5007370;28;20026;-82
2021/05/02 16:33:00;;;;;;;7.05;5.80;;;18.00;40.60;;;;;;5015456;28;20018;-83
2021/05/02 16:35:25;;;;;;;6.43;5.00;;;18.00;40.40;;;;;;5005274;28;20105;-84
2021/05/02 16:37:51;;;;;;;5.68;4.57;;;17.80;40.00;;;;;;4998956;28;20551;-82
2021/05/02 16:40:17;;;;;;;7.95;5.82;;;17.80;40.80;;;;;;5011834;28;20446;-81
2021/05/02 16:42:43;;;;;;;7.22;5.80;;;17.80;40.40;;;;;;5010143;28;20034;-82
2021/05/02 16:45:10;;;;;;;7.28;5.68;;;17.70;40.20;;;;;;5012530;28;20017;-82
2021/05/02 16:47:35;;;;;;;7.70;5.10;;;17.70;40.50;;;;;;5014119;28;20061;-82
2021/05/02 16:50:02;;;;;;;8.93;5.93;;;17.70;40.40;;;;;;5013754;28;20046;-82
2021/05/02 16:52:29;;;;;;;13.02;11.05;;;17.80;40.70;;;;;;5013982;28;20500;-82
2021/05/02 16:54:55;;;;;;;10.45;7.82;;;17.70;40.90;;;;;;5011100;28;20794;-81
2021/05/02 16:57:21;;;;;;;26.17;18.48;;;17.70;40.60;;;;;;5013566;28;20062;-82
2021/05/02 16:59:46;;;;;;;17.65;11.77;;;17.60;41.10;;;;;;5013439;28;20037;-81
2021/05/02 17:02:12;;;;;;;8.98;6.93;;;17.60;41.60;;;;;;4994586;28;20062;-81
2021/05/02 17:04:38;;;;;;;7.43;4.68;;;17.60;41.10;;;;;;4994259;28;20069;-82
2021/05/02 17:07:04;;;;;;;5.82;4.78;;;17.60;41.20;;;;;;4998809;28;20072;-82
2021/05/02 17:09:29;;;;;;;5.63;4.80;;;17.50;40.60;;;;;;5011485;28;20489;-82
2021/05/02 17:11:55;;;;;;;6.95;4.68;;;17.40;41.30;;;;;;5010041;28;20079;-82
2021/05/02 17:14:21;;;;;;;4.55;3.95;;;17.40;42.10;;;;;;5014825;28;20014;-82
2021/05/02 17:16:46;;;;;;;7.10;4.32;;;17.30;42.10;;;;;;5012175;28;20137;-81
2021/05/02 17:19:12;;;;;;;5.53;4.43;;;17.30;42.00;;;;;;5013452;28;20028;-81
2021/05/02 17:21:38;;;;;;;6.30;4.53;;;17.10;41.90;;;;;;5011150;28;20034;-82
2021/05/02 17:24:04;;;;;;;7.63;4.68;;;17.00;42.30;;;;;;5013317;28;20025;-82
2021/05/02 17:26:31;;;;;;;6.28;4.65;;;17.00;42.50;;;;;;5013554;28;20392;-81
2021/05/02 17:28:57;;;;;;;5.03;3.88;;;16.90;42.70;;;;;;5011471;28;20029;-82
2021/05/02 17:31:23;;;;;;;5.03;4.00;;;16.90;42.60;;;;;;5004829;28;20033;-81
2021/05/02 17:33:49;;;;;;;4.80;4.22;;;16.90;42.70;;;;;;5009800;28;20068;-81
2021/05/02 17:36:14;;;;;;;5.35;4.47;;;16.90;43.00;;;;;;5010316;28;20022;-82
2021/05/02 17:38:40;;;;;;;6.40;4.55;;;16.80;42.80;;;;;;5012881;28;20045;-82
2021/05/02 17:41:06;;;;;;;6.90;4.43;;;16.80;43.00;;;;;;5013011;28;20025;-81
2021/05/02 17:43:32;;;;;;;5.25;4.55;;;16.80;43.50;;;;;;5011729;28;20033;-83
2021/05/02 17:45:58;;;;;;;5.72;4.38;;;16.80;44.00;;;;;;5012567;28;20033;-82
2021/05/02 17:48:24;;;;;;;4.85;4.30;;;16.80;43.30;;;;;;5012007;28;20033;-81
2021/05/02 17:50:50;;;;;;;4.90;4.40;;;16.70;43.10;;;;;;5013533;28;20497;-81
2021/05/02 17:53:16;;;;;;;6.40;5.68;;;16.60;42.90;;;;;;5007483;28;20033;-82
2021/05/02 17:55:43;;;;;;;6.95;5.30;;;16.60;43.20;;;;;;5011755;28;20038;-82
2021/05/02 17:58:14;;;;;;;6.65;4.68;;;16.70;43.40;;;;;;5012561;28;20109;-79
2021/05/02 18:00:41;;;;;;;6.22;4.80;;;16.60;42.90;;;;;;5013519;28;20510;-83
2021/05/02 18:03:07;;;;;;;6.32;3.78;;;16.60;42.70;;;;;;5003141;28;20114;-79
2021/05/02 18:05:34;;;;;;;4.88;3.95;;;16.70;42.80;;;;;;5000811;28;20033;-82
2021/05/02 18:08:00;;;;;;;4.82;3.95;;;16.70;42.40;;;;;;4998465;28;20338;-80
2021/05/02 18:10:26;;;;;;;5.00;4.35;;;16.60;42.30;;;;;;4999061;28;20033;-82
2021/05/02 18:12:51;;;;;;;6.53;4.95;;;16.70;42.30;;;;;;5003415;28;20060;-80
2021/05/02 18:15:18;;;;;;;6.43;4.50;;;16.60;42.70;;;;;;4996814;28;20029;-84
2021/05/02 18:17:46;;;;;;;6.22;4.30;;;16.50;42.90;;;;;;5011193;28;20056;-83
2021/05/02 18:20:12;;;;;;;6.32;4.22;;;16.50;43.60;;;;;;5009983;28;20018;-79
2021/05/02 18:22:38;;;;;;;4.47;3.90;;;16.50;43.40;;;;;;5009513;28;20018;-85
2021/05/02 18:25:05;;;;;;;5.82;4.45;;;16.40;43.40;;;;;;5011282;28;20061;-81
2021/05/02 18:27:31;;;;;;;4.95;3.75;;;16.40;43.50;;;;;;5017523;28;20032;-81
2021/05/02 18:29:58;;;;;;;5.70;4.57;;;16.30;45.00;;;;;;5019001;28;20017;-80
2021/05/02 18:32:24;;;;;;;6.10;3.83;;;16.10;44.90;;;;;;5013395;28;20022;-81
2021/05/02 18:34:50;;;;;;;5.95;3.58;;;16.00;44.50;;;;;;5018665;28;20021;-83
2021/05/02 18:37:15;;;;;;;6.65;3.92;;;16.00;44.40;;;;;;5014857;28;20037;-81
2021/05/02 18:39:43;;;;;;;4.82;3.53;;;15.90;44.40;;;;;;5013576;28;20057;-81
2021/05/02 18:42:09;;;;;;;9.45;4.32;;;15.90;44.60;;;;;;5008501;28;20027;-82
2021/05/02 18:44:35;;;;;;;6.13;3.95;;;15.80;45.00;;;;;;5016708;28;20034;-81
2021/05/02 18:47:02;;;;;;;5.13;4.60;;;15.80;44.90;;;;;;5011821;28;20056;-80
2021/05/02 18:49:27;;;;;;;5.43;3.83;;;15.70;45.20;;;;;;5008793;28;20022;-77
2021/05/02 18:51:53;;;;;;;6.07;4.47;;;15.60;45.60;;;;;;5006710;28;20128;-82
2021/05/02 18:54:19;;;;;;;5.88;4.07;;;15.50;45.90;;;;;;5009239;28;20034;-83
2021/05/02 18:56:45;;;;;;;4.95;3.92;;;15.50;45.90;;;;;;5003787;28;20030;-78
2021/05/02 18:59:10;;;;;;;5.40;3.78;;;15.40;46.20;;;;;;5001596;28;20501;-79
2021/05/02 19:01:36;;;;;;;6.13;4.10;;;15.40;46.20;;;;;;5004587;28;20026;-84
2021/05/02 19:04:02;;;;;;;6.05;3.75;;;15.30;46.10;;;;;;5001593;28;20077;-79
2021/05/02 19:06:28;;;;;;;4.75;3.65;;;15.30;46.40;;;;;;5000991;28;20034;-79
2021/05/02 19:08:55;;;;;;;4.80;4.10;;;15.20;46.60;;;;;;4975652;28;20498;-78
2021/05/02 19:11:21;;;;;;;4.47;3.83;;;15.10;46.70;;;;;;4980094;28;20035;-83
2021/05/02 19:13:47;;;;;;;5.97;5.15;;;15.00;46.50;;;;;;4968392;28;20514;-84
2021/05/02 19:16:13;;;;;;;5.15;4.20;;;15.00;46.60;;;;;;4964105;28;20066;-85
2021/05/02 19:18:38;;;;;;;6.00;4.47;;;14.90;46.90;;;;;;4972581;28;20086;-87
2021/05/02 19:21:04;;;;;;;5.45;3.85;;;14.80;47.00;;;;;;4977122;28;20027;-84
2021/05/02 19:23:30;;;;;;;5.15;3.70;;;14.80;47.00;;;;;;4976591;28;20047;-85
2021/05/02 19:25:56;;;;;;;4.55;3.42;;;14.80;46.80;;;;;;4973680;28;20569;-86
2021/05/02 19:28:22;;;;;;;4.97;3.72;;;14.80;46.80;;;;;;4969845;28;20109;-87
2021/05/02 19:30:47;;;;;;;3.90;3.28;;;14.70;46.80;;;;;;4976429;28;20035;-85
2021/05/02 19:33:13;;;;;;;4.68;3.08;;;14.60;46.80;;;;;;4971823;28;20033;-85
2021/05/02 19:35:39;;;;;;;5.13;3.35;;;14.60;46.80;;;;;;4975903;28;20033;-86
2021/05/02 19:38:04;;;;;;;4.22;3.53;;;14.60;46.60;;;;;;4974169;28;20051;-80
2021/05/02 19:40:30;;;;;;;3.95;2.85;;;14.50;46.80;;;;;;4975488;28;20046;-80
2021/05/02 19:42:56;;;;;;;4.60;3.67;;;14.50;46.70;;;;;;4974479;28;20129;-79
2021/05/02 19:45:22;;;;;;;6.13;3.67;;;14.50;46.30;;;;;;4974185;28;20074;-85
2021/05/02 19:47:48;;;;;;;4.93;3.42;;;14.50;46.40;;;;;;4975287;28;20038;-84
2021/05/02 19:50:14;;;;;;;5.90;3.28;;;14.40;46.50;;;;;;4979818;28;20027;-84
2021/05/02 19:52:40;;;;;;;5.45;3.78;;;14.40;46.50;;;;;;4977263;28;20738;-79
2021/05/02 19:55:06;;;;;;;4.60;3.40;;;14.40;46.60;;;;;;4971948;28;20075;-79
2021/05/02 19:57:32;;;;;;;4.40;2.85;;;14.30;46.40;;;;;;4966868;28;20482;-79
2021/05/02 19:59:57;;;;;;;4.28;3.72;;;14.30;46.50;;;;;;4961718;28;20815;-79
2021/05/02 20:02:23;;;;;;;4.63;3.70;;;14.30;46.50;;;;;;4966373;28;20049;-79
2021/05/02 20:04:49;;;;;;;5.70;3.70;;;14.20;46.50;;;;;;4979624;28;20038;-78
2021/05/02 20:07:15;;;;;;;3.95;3.55;;;14.10;46.50;;;;;;4968036;28;20029;-78
2021/05/02 20:09:41;;;;;;;6.32;4.20;;;14.10;46.90;;;;;;4969024;28;20039;-78
2021/05/02 20:12:07;;;;;;;4.50;3.67;;;14.00;46.80;;;;;;4968181;28;20050;-78
2021/05/02 20:14:33;;;;;;;5.93;3.80;;;13.90;47.20;;;;;;4973625;28;20027;-78
2021/05/02 20:16:59;;;;;;;4.60;3.72;;;14.00;47.00;;;;;;4965761;28;20441;-79
2021/05/02 20:19:25;;;;;;;5.22;3.55;;;13.90;47.20;;;;;;4969722;28;20023;-79
2021/05/02 20:21:51;;;;;;;5.47;3.92;;;13.90;47.00;;;;;;4968545;28;20051;-79
2021/05/02 20:24:17;;;;;;;5.00;3.85;;;13.80;47.60;;;;;;4968385;28;20061;-79
2021/05/02 20:26:43;;;;;;;7.15;4.18;;;13.70;47.50;;;;;;4973288;28;20063;-78
2021/05/02 20:29:09;;;;;;;3.78;3.40;;;13.70;47.90;;;;;;4974527;28;20026;-79
2021/05/02 20:31:34;;;;;;;4.78;3.90;;;13.60;47.80;;;;;;4976195;28;20023;-79
2021/05/02 20:34:08;;;;;;;4.68;3.60;;;13.60;47.50;;;;;;4975570;28;20077;-78
2021/05/02 20:36:37;;;;;;;4.05;3.38;;;13.70;47.60;;;;;;4976693;28;20027;-79
2021/05/02 20:39:13;;;;;;;9.98;4.38;;;13.60;47.90;;;;;;4975357;28;20078;-79
2021/05/02 20:41:42;;;;;;;3.85;3.17;;;13.60;47.30;;;;;;4974351;28;20035;-79
2021/05/02 20:44:08;;;;;;;4.20;3.38;;;13.60;47.50;;;;;;4973108;28;20027;-79
2021/05/02 20:46:34;;;;;;;4.60;3.38;;;13.60;47.40;;;;;;4976953;28;20597;-78
2021/05/02 20:49:02;;;;;;;4.18;3.35;;;13.50;47.70;;;;;;4973403;28;20094;-78
2021/05/02 20:51:28;;;;;;;4.30;3.22;;;13.60;47.70;;;;;;4975778;28;20026;-79
2021/05/02 20:53:54;;;;;;;4.85;3.45;;;13.50;47.90;;;;;;4976090;28;20121;-79
2021/05/02 20:56:19;;;;;;;5.53;3.97;;;13.50;47.80;;;;;;4973606;28;20034;-78
2021/05/02 20:58:45;;;;;;;3.55;3.25;;;13.60;47.80;;;;;;4973142;28;20023;-78
2021/05/02 21:01:11;;;;;;;5.13;3.88;;;13.50;47.80;;;;;;4974614;28;20035;-78
2021/05/02 21:03:41;;;;;;;3.88;3.20;;;13.50;48.00;;;;;;4969632;28;20249;-78
2021/05/02 21:06:07;;;;;;;5.10;3.50;;;13.40;48.30;;;;;;4972236;28;20049;-79
2021/05/02 21:08:34;;;;;;;5.68;3.58;;;13.40;48.40;;;;;;4973785;28;20397;-79
2021/05/02 21:11:00;;;;;;;4.80;3.55;;;13.30;48.30;;;;;;4973751;28;20086;-79
2021/05/02 21:13:26;;;;;;;3.83;3.35;;;13.30;48.60;;;;;;4973768;28;20572;-79
2021/05/02 21:15:52;;;;;;;4.55;3.47;;;13.30;48.70;;;;;;4989702;28;20375;-79
2021/05/02 21:18:17;;;;;;;4.80;3.38;;;13.30;49.00;;;;;;4976120;28;20054;-78
2021/05/02 21:20:43;;;;;;;5.53;3.60;;;13.30;48.90;;;;;;4976246;28;20039;-78
2021/05/02 21:23:09;;;;;;;5.00;3.92;;;13.30;49.10;;;;;;4988192;28;20054;-78
2021/05/02 21:25:34;;;;;;;4.43;3.33;;;13.20;49.30;;;;;;4974923;28;20070;-79
2021/05/02 21:28:00;;;;;;;5.20;3.47;;;13.20;49.90;;;;;;4976009;28;20615;-79
2021/05/02 21:30:26;;;;;;;4.85;3.67;;;13.10;50.60;;;;;;4990354;28;20035;-78
2021/05/02 21:32:52;;;;;;;4.88;3.65;;;13.10;50.70;;;;;;4965948;28;20027;-79
2021/05/02 21:35:18;;;;;;;5.38;3.72;;;13.00;50.80;;;;;;4965078;28;20074;-78
2021/05/02 21:37:43;;;;;;;5.43;3.78;;;13.00;51.00;;;;;;4967243;28;20106;-78
2021/05/02 21:40:10;;;;;;;5.82;4.20;;;13.10;51.00;;;;;;4964108;28;20015;-78
2021/05/02 21:42:36;;;;;;;5.28;4.00;;;13.00;51.20;;;;;;4983204;28;20447;-79
2021/05/02 21:45:03;;;;;;;5.40;3.65;;;13.10;51.00;;;;;;4964167;28;20347;-79
2021/05/02 21:47:28;;;;;;;7.03;4.50;;;13.10;51.20;;;;;;4963894;28;20027;-79
2021/05/02 21:49:58;;;;;;;4.90;4.22;;;13.00;51.40;;;;;;4966668;28;20077;-78
2021/05/02 21:52:26;;;;;;;6.05;4.68;;;12.90;51.90;;;;;;4965233;28;20038;-79
2021/05/02 21:54:51;;;;;;;8.07;4.80;;;12.90;52.00;;;;;;4966754;28;20034;-78
2021/05/02 21:57:17;;;;;;;6.32;5.05;;;12.90;52.40;;;;;;4968160;28;20031;-78
2021/05/02 21:59:43;;;;;;;5.63;4.90;;;12.70;53.20;;;;;;4965677;28;20038;-78
2021/05/02 22:02:08;;;;;;;7.30;4.65;;;12.70;53.50;;;;;;4969600;28;20038;-78
2021/05/02 22:04:34;;;;;;;5.95;4.90;;;12.70;53.70;;;;;;4968602;28;20074;-78
2021/05/02 22:07:00;;;;;;;6.55;4.80;;;12.70;53.70;;;;;;4970006;28;20025;-78
2021/05/02 22:09:25;;;;;;;6.57;4.60;;;12.70;53.30;;;;;;4969330;28;20185;-78
2021/05/02 22:11:51;;;;;;;7.28;4.43;;;12.70;53.60;;;;;;4968846;28;20021;-79
2021/05/02 22:14:17;;;;;;;6.78;4.93;;;12.70;53.90;;;;;;4969263;28;20034;-78
2021/05/02 22:16:42;;;;;;;5.70;4.57;;;12.60;54.20;;;;;;4971505;28;20869;-78
2021/05/02 22:19:08;;;;;;;7.10;5.07;;;12.60;54.40;;;;;;4969635;28;20549;-78
2021/05/02 22:21:34;;;;;;;6.50;4.50;;;12.50;54.60;;;;;;4969671;28;20083;-78
2021/05/02 22:23:59;;;;;;;5.45;4.68;;;12.40;54.90;;;;;;4985370;28;20442;-78
2021/05/02 22:26:53;;;;;;;8.02;5.78;;;12.40;55.00;;;;;;4968154;28;20022;-79
2021/05/02 22:29:19;;;;;;;7.03;5.05;;;12.30;55.30;;;;;;4967929;28;20042;-78
2021/05/02 22:31:44;;;;;;;7.55;5.38;;;12.40;55.50;;;;;;4966693;28;20027;-78
2021/05/02 22:34:10;;;;;;;6.07;4.82;;;12.30;55.60;;;;;;4969104;28;20023;-79
2021/05/02 22:36:36;;;;;;;7.35;5.82;;;12.30;55.50;;;;;;4970569;28;20027;-78
2021/05/02 22:39:04;;;;;;;7.30;5.20;;;12.40;55.30;;;;;;4969076;28;20054;-79
2021/05/02 22:41:31;;;;;;;6.85;5.75;;;12.40;55.70;;;;;;4983429;28;20482;-78
2021/05/02 22:43:57;;;;;;;7.30;5.43;;;12.40;55.30;;;;;;4971239;28;20031;-78
2021/05/02 22:46:26;;;;;;;6.63;5.68;;;12.40;55.60;;;;;;4968764;28;20031;-79
2021/05/02 22:48:52;;;;;;;7.35;5.55;;;12.30;56.00;;;;;;4970813;28;20835;-79
2021/05/02 22:51:17;;;;;;;7.20;5.68;;;12.30;56.00;;;;;;4969349;28;20023;-78
2021/05/02 22:53:46;;;;;;;8.32;5.95;;;12.30;55.70;;;;;;4970601;28;20058;-78
2021/05/02 22:56:11;;;;;;;8.23;6.00;;;12.30;55.60;;;;;;4967437;28;20027;-78
2021/05/02 23:01:59;;;;;;;8.05;5.75;;;12.20;56.60;;;;;;4968906;28;20393;-78
2021/05/02 23:04:25;;;;;;;6.75;5.35;;;12.20;55.90;;;;;;4966984;28;20038;-78
2021/05/02 23:06:51;;;;;;;6.40;5.57;;;12.20;55.80;;;;;;4968584;28;20030;-78
2021/05/02 23:09:16;;;;;;;9.20;6.65;;;12.00;57.00;;;;;;4968190;28;20027;-78
2021/05/02 23:11:42;;;;;;;8.27;5.50;;;12.00;57.30;;;;;;4967590;28;20509;-78
2021/05/02 23:14:08;;;;;;;9.60;5.80;;;11.90;57.30;;;;;;4985446;28;20117;-78
2021/05/02 23:16:34;;;;;;;7.05;5.65;;;11.80;57.60;;;;;;4968710;28;20504;-78
2021/05/02 23:18:59;;;;;;;8.63;6.30;;;11.70;58.30;;;;;;4967573;28;20501;-79
2021/05/02 23:21:25;;;;;;;8.05;6.18;;;11.60;60.00;;;;;;4970984;28;20635;-78
2021/05/02 23:24:00;;;;;;;9.70;6.78;;;11.50;59.80;;;;;;4965811;28;20504;-78
2021/05/02 23:26:29;;;;;;;8.15;5.95;;;11.50;59.80;;;;;;4970799;28;20093;-78
2021/05/02 23:28:54;;;;;;;6.82;5.28;;;11.40;59.30;;;;;;4983525;28;20043;-78
2021/05/02 23:31:20;;;;;;;9.25;6.65;;;11.40;58.20;;;;;;4969116;28;20027;-78
2021/05/02 23:33:46;;;;;;;8.00;6.20;;;11.30;60.20;;;;;;4966988;28;20030;-79
2021/05/02 23:36:11;;;;;;;8.27;6.88;;;11.30;60.60;;;;;;4967760;28;20045;-78
2021/05/02 23:38:37;;;;;;;8.75;6.25;;;11.10;61.70;;;;;;4967661;28;20058;-78
2021/05/02 23:41:04;;;;;;;10.40;6.90;;;11.10;62.00;;;;;;4968175;28;20029;-78
2021/05/02 23:43:30;;;;;;;8.75;6.22;;;11.10;61.80;;;;;;4965386;28;20034;-79
2021/05/02 23:45:56;;;;;;;8.63;6.38;;;11.00;61.40;;;;;;4968018;28;20034;-78
2021/05/02 23:48:22;;;;;;;7.43;6.47;;;11.10;60.00;;;;;;4966347;28;20105;-78
2021/05/02 23:50:47;;;;;;;7.65;5.70;;;11.10;60.00;;;;;;4997124;28;20569;-78
2021/05/02 23:53:16;;;;;;;9.82;6.47;;;11.00;60.50;;;;;;4963640;28;20081;-78
2021/05/02 23:55:42;;;;;;;9.73;6.25;;;10.90;60.60;;;;;;4967680;28;20026;-78
2021/05/02 23:58:08;;;;;;;7.72;6.28;;;10.80;61.60;;;;;;4971133;28;20031;-79
